Time;durP1;ratioP1;P1;durP2;ratioP2;P2;SDS_P1;SDS_P2;PMS_P1;PMS_P2;Temp;Humidity;BMP_temperature;BMP_pressure;BME280_temperature;BME280_humidity;BME280_pressure;Samples;Min_cycle;Max_cycle;Signal;HPM_P1;HPM_P2
2022/01/15 01:01:16;;;;;;;18.65;4.55;;;24.90;85.50;;;;;;5047405;28;20056;-70
2022/01/15 01:03:44;;;;;;;11.45;4.13;;;24.90;85.30;;;;;;5068671;28;20116;-70
2022/01/15 01:06:11;;;;;;;23.50;4.57;;;24.90;85.50;;;;;;5070864;28;20036;-71
2022/01/15 01:08:38;;;;;;;16.63;4.60;;;24.90;85.70;;;;;;5071666;28;20056;-71
2022/01/15 01:11:12;;;;;;;15.15;4.30;;;24.90;85.60;;;;;;5070909;28;20036;-70
2022/01/15 01:22:51;;;;;;;18.65;4.35;;;24.80;85.50;;;;;;5071227;28;20101;-71
2022/01/15 01:24:48;;;;;;;19.00;5.43;;;24.80;85.40;;;;;;5071354;28;20039;-71
2022/01/15 01:28:06;;;;;;;14.93;5.10;;;24.80;85.30;;;;;;5070353;28;20414;-72
2022/01/15 01:30:12;;;;;;;14.75;4.68;;;24.80;85.20;;;;;;5055829;28;20071;-72
2022/01/15 01:32:47;;;;;;;15.02;4.85;;;24.80;85.20;;;;;;5067086;28;20123;-71
2022/01/15 01:35:29;;;;;;;15.80;4.43;;;24.80;85.20;;;;;;5070737;28;20027;-71
2022/01/15 01:38:05;;;;;;;17.23;4.15;;;24.80;85.20;;;;;;5070314;28;20391;-71
2022/01/15 01:40:38;;;;;;;12.45;4.65;;;24.80;85.30;;;;;;5070730;28;20407;-71
2022/01/15 01:43:40;;;;;;;23.02;5.47;;;24.80;85.30;;;;;;5070211;28;20071;-68
2022/01/15 01:48:41;;;;;;;17.08;5.07;;;24.80;85.60;;;;;;5055260;28;20416;-68
2022/01/15 01:51:09;;;;;;;12.88;4.50;;;24.80;85.80;;;;;;5070661;28;20025;-66
2022/01/15 01:53:36;;;;;;;16.88;4.28;;;24.80;85.70;;;;;;5060393;28;20047;-68
2022/01/15 01:56:04;;;;;;;17.23;4.40;;;24.90;85.60;;;;;;5070423;28;20146;-68
2022/01/15 01:58:31;;;;;;;17.15;4.72;;;24.90;85.70;;;;;;5070449;28;20040;-67
2022/01/15 21:59:06;;;;;;;;;;;24.40;85.90;;;;;;5062225;28;20089;-67
2022/01/15 22:01:32;;;;;;;;;;;24.40;86.30;;;;;;5089519;28;19927;-67
2022/01/15 22:03:59;;;;;;;;;;;24.40;86.20;;;;;;5091377;28;20010;-67
2022/01/15 22:06:26;;;;;;;;;;;24.30;85.80;;;;;;5080116;28;20254;-67
2022/01/15 22:08:55;;;;;;;;;;;24.40;86.00;;;;;;5091705;28;19969;-67
2022/01/15 22:11:25;;;;;;;;;;;24.40;85.70;;;;;;5090811;28;20254;-68
2022/01/15 22:13:55;;;;;;;;;;;24.50;86.30;;;;;;5060759;28;19919;-67
2022/01/15 22:16:21;;;;;;;;;;;24.50;85.80;;;;;;5074437;28;19904;-68
2022/01/15 22:18:48;;;;;;;;;;;24.60;86.10;;;;;;5071875;28;19997;-67
2022/01/15 22:21:14;;;;;;;;;;;24.80;86.00;;;;;;5072881;28;20042;-67
2022/01/15 22:23:41;;;;;;;;;;;24.80;85.40;;;;;;5090080;28;20286;-67
2022/01/15 22:26:08;;;;;;;;;;;24.80;85.50;;;;;;5074208;28;19908;-67
2022/01/15 22:28:34;;;;;;;;;;;24.80;85.50;;;;;;5077660;28;19990;-67
2022/01/15 22:31:01;;;;;;;;;;;24.90;85.40;;;;;;5084020;28;19911;-68
2022/01/15 22:33:27;;;;;;;;;;;25.00;85.30;;;;;;5073161;28;19913;-67
2022/01/15 22:35:54;;;;;;;;;;;25.00;84.50;;;;;;5078361;28;19943;-67
2022/01/15 22:38:20;;;;;;;;;;;25.10;83.90;;;;;;5090178;28;19950;-67
2022/01/15 22:40:48;;;;;;;;;;;25.20;84.30;;;;;;5090146;28;19916;-67
2022/01/15 22:43:16;;;;;;;;;;;25.30;83.60;;;;;;5086501;28;19915;-67
2022/01/15 22:45:47;;;;;;;;;;;25.40;84.00;;;;;;5083255;28;19904;-67
2022/01/15 22:48:14;;;;;;;;;;;25.30;83.00;;;;;;5077190;28;20426;-67
2022/01/15 22:50:40;;;;;;;;;;;25.20;82.90;;;;;;5082446;28;20431;-67
2022/01/15 22:53:07;;;;;;;;;;;25.20;82.70;;;;;;5088709;28;19912;-67
2022/01/15 22:55:33;;;;;;;;;;;25.20;82.40;;;;;;5086751;28;19909;-67
2022/01/15 22:58:00;;;;;;;;;;;25.30;83.10;;;;;;5077080;28;19915;-67
2022/01/15 23:00:35;;;;;;;;;;;25.20;82.70;;;;;;5079901;28;19994;-68
2022/01/15 23:03:02;;;;;;;;;;;25.10;82.70;;;;;;5075731;28;19958;-68
2022/01/15 23:05:33;;;;;;;;;;;25.10;82.80;;;;;;5090597;28;19908;-67
2022/01/15 23:08:00;;;;;;;;;;;25.20;82.60;;;;;;5090472;28;19947;-67
2022/01/15 23:10:26;;;;;;;;;;;25.20;82.40;;;;;;5090682;28;19914;-67
2022/01/15 23:13:04;;;;;;;;;;;25.10;82.90;;;;;;5085218;28;19985;-67
2022/01/15 23:17:57;;;;;;;;;;;25.10;83.30;;;;;;5090670;28;20339;-67
2022/01/15 23:20:24;;;;;;;;;;;25.20;83.00;;;;;;5090363;28;19959;-68
2022/01/15 23:22:51;;;;;;;;;;;25.40;82.90;;;;;;5090390;28;20332;-68
2022/01/15 23:25:19;;;;;;;;;;;25.50;82.50;;;;;;5090285;28;20269;-68
2022/01/15 23:27:47;;;;;;;;;;;25.70;82.00;;;;;;5090636;28;19914;-68
2022/01/15 23:30:13;;;;;;;;;;;25.70;82.10;;;;;;5072955;28;19988;-68
2022/01/15 23:32:40;;;;;;;;;;;25.70;81.50;;;;;;5072652;28;19930;-68
2022/01/15 23:35:06;;;;;;;;;;;25.70;81.30;;;;;;5090419;28;20368;-67
2022/01/15 23:37:33;;;;;;;;;;;25.80;81.20;;;;;;5071912;28;19915;-67
2022/01/15 23:40:00;;;;;;;;;;;25.90;80.10;;;;;;5090595;28;20061;-68
2022/01/15 23:42:26;;;;;;;;;;;25.90;80.00;;;;;;5090480;28;19908;-68
2022/01/15 23:44:58;;;;;;;;;;;26.00;80.00;;;;;;5070415;28;19997;-68
2022/01/15 23:47:25;;;;;;;;;;;26.00;79.40;;;;;;5084264;28;20324;-68
2022/01/15 23:49:51;;;;;;;;;;;26.00;78.80;;;;;;5090641;28;20376;-68
2022/01/15 23:52:18;;;;;;;;;;;26.00;78.50;;;;;;5072184;28;19922;-67
2022/01/15 23:54:45;;;;;;;;;;;26.00;78.60;;;;;;5051920;28;20274;-67
